createdAt,value
2022-09-24T00:01:39.566Z,25.17
2022-09-24T00:04:12.353Z,26.73
2022-09-24T00:06:50.101Z,27.98
2022-09-24T00:09:22.133Z,26.83
2022-09-24T00:11:50.404Z,26.63
2022-09-24T00:14:17.599Z,27.02
2022-09-24T00:16:45.690Z,24.20
2022-09-24T00:19:13.857Z,24.40
2022-09-24T00:21:41.688Z,22.55
2022-09-24T00:24:32.400Z,23.27
2022-09-24T00:27:02.895Z,24.08
2022-09-24T00:29:32.006Z,21.88
2022-09-24T00:32:01.386Z,23.80
2022-09-24T00:34:30.689Z,20.75
2022-09-24T00:36:57.402Z,22.88
2022-09-24T00:39:23.973Z,21.83
2022-09-24T00:41:50.504Z,24.05
2022-09-24T00:44:44.779Z,22.92
2022-09-24T00:47:32.257Z,20.40
2022-09-24T00:50:06.134Z,23.77
2022-09-24T00:52:36.255Z,22.67
2022-09-24T00:55:05.138Z,22.42
2022-09-24T00:57:31.945Z,21.20
2022-09-24T00:59:59.025Z,20.27
2022-09-24T01:02:25.743Z,20.33
2022-09-24T01:04:56.287Z,26.17
2022-09-24T01:07:23.620Z,24.00
2022-09-24T01:09:50.257Z,21.38
2022-09-24T01:12:33.487Z,19.05
2022-09-24T01:15:11.959Z,20.55
2022-09-24T01:18:04.436Z,20.27
2022-09-24T01:20:52.519Z,18.67
2022-09-24T01:24:10.349Z,17.33
2022-09-24T01:27:12.694Z,19.45
2022-09-24T01:29:43.468Z,18.05
2022-09-24T01:32:12.590Z,17.25
2022-09-24T01:34:55.004Z,18.40
2022-09-24T01:37:30.423Z,21.83
2022-09-24T01:39:58.332Z,21.98
2022-09-24T01:42:29.429Z,21.95
2022-09-24T01:44:57.780Z,18.95
2022-09-24T01:47:35.022Z,17.98
2022-09-24T01:50:03.036Z,17.63
2022-09-24T01:52:39.302Z,19.95
2022-09-24T01:55:08.394Z,18.25
2022-09-24T01:57:50.591Z,15.60
2022-09-24T02:00:19.282Z,16.25
2022-09-24T02:03:11.696Z,15.93
2022-09-24T02:05:45.816Z,18.65
2022-09-24T02:08:19.102Z,15.40
2022-09-24T02:11:17.065Z,16.88
2022-09-24T02:13:51.290Z,15.07
2022-09-24T02:16:25.971Z,17.42
2022-09-24T02:18:57.684Z,16.63
2022-09-24T02:21:29.653Z,15.00
2022-09-24T02:24:10.182Z,14.95
2022-09-24T02:26:36.793Z,16.55
2022-09-24T02:29:03.827Z,14.98
2022-09-24T02:31:41.164Z,14.98
2022-09-24T02:34:20.787Z,14.30
2022-09-24T02:36:53.100Z,15.20
2022-09-24T02:39:19.741Z,16.63
2022-09-24T02:41:48.156Z,15.25
2022-09-24T02:44:20.488Z,16.45
2022-09-24T02:46:47.832Z,16.75
2022-09-24T02:49:15.008Z,14.57
2022-09-24T02:51:44.354Z,16.52
2022-09-24T02:54:11.237Z,15.73
2022-09-24T02:56:40.429Z,16.33
2022-09-24T02:59:07.752Z,18.25
2022-09-24T03:01:39.198Z,17.90
2022-09-24T03:04:08.518Z,18.98
2022-09-24T03:06:35.596Z,15.82
2022-09-24T03:09:03.449Z,17.48
2022-09-24T03:11:33.201Z,19.83
2022-09-24T03:14:00.114Z,17.75
2022-09-24T03:16:27.276Z,16.45
2022-09-24T03:18:53.929Z,17.02
2022-09-24T03:21:22.378Z,20.60
2022-09-24T03:23:49.560Z,18.27
2022-09-24T03:26:17.549Z,17.10
2022-09-24T03:28:44.399Z,15.38
2022-09-24T03:31:11.434Z,19.00
2022-09-24T03:33:46.487Z,17.88
2022-09-24T03:36:16.211Z,17.08
2022-09-24T03:38:44.655Z,16.52
2022-09-24T03:41:12.447Z,19.45
2022-09-24T03:43:41.361Z,17.60
2022-09-24T03:46:09.425Z,15.95
2022-09-24T03:48:37.705Z,18.05
2022-09-24T03:51:12.158Z,16.08
2022-09-24T03:53:39.468Z,18.75
2022-09-24T03:56:07.766Z,18.63
2022-09-24T03:58:38.748Z,15.65
2022-09-24T04:01:10.327Z,18.33
2022-09-24T04:03:40.149Z,20.05
2022-09-24T04:06:07.236Z,18.77
2022-09-24T04:08:36.077Z,21.27
2022-09-24T04:11:02.690Z,17.05
2022-09-24T04:13:29.211Z,19.13
2022-09-24T04:15:55.927Z,19.73
2022-09-24T04:18:22.633Z,19.15
2022-09-24T04:20:49.141Z,19.00
2022-09-24T04:23:15.714Z,18.00
2022-09-24T04:25:44.603Z,16.40
2022-09-24T04:28:13.887Z,18.17
2022-09-24T04:30:40.446Z,18.20
2022-09-24T04:33:07.845Z,16.83
2022-09-24T04:35:41.075Z,17.33
2022-09-24T04:38:07.600Z,14.65
2022-09-24T04:40:34.187Z,13.57
2022-09-24T04:43:00.973Z,14.02
2022-09-24T04:45:27.507Z,16.10
2022-09-24T04:47:57.933Z,14.88
2022-09-24T04:50:33.227Z,13.35
2022-09-24T04:53:03.735Z,14.30
2022-09-24T04:55:32.098Z,16.63
2022-09-24T04:57:59.153Z,14.60
2022-09-24T05:00:25.781Z,14.48
2022-09-24T05:02:59.768Z,14.23
2022-09-24T05:05:27.045Z,15.10
2022-09-24T05:07:56.642Z,16.67
2022-09-24T05:10:26.459Z,17.05
2022-09-24T05:12:53.408Z,15.38
2022-09-24T05:15:22.432Z,17.42
2022-09-24T05:17:51.173Z,18.17
2022-09-24T05:20:19.911Z,16.55
2022-09-24T05:22:49.272Z,16.85
2022-09-24T05:25:18.263Z,14.82
2022-09-24T05:27:48.921Z,21.42
2022-09-24T05:30:19.188Z,17.75
2022-09-24T05:32:47.141Z,18.33
2022-09-24T05:35:13.853Z,17.67
2022-09-24T05:37:41.159Z,18.63
2022-09-24T05:40:26.786Z,18.35
2022-09-24T05:42:59.934Z,17.48
2022-09-24T05:45:26.457Z,19.17
2022-09-24T05:47:55.212Z,21.27
2022-09-24T05:50:21.761Z,18.08
2022-09-24T05:52:48.556Z,17.25
2022-09-24T05:55:15.113Z,21.17
2022-09-24T05:57:44.286Z,18.10
2022-09-24T06:00:11.362Z,18.45
2022-09-24T06:02:37.853Z,18.88
2022-09-24T06:05:05.671Z,17.70
2022-09-24T06:07:32.267Z,21.63
2022-09-24T06:10:01.724Z,19.90
2022-09-24T06:12:30.519Z,18.33
2022-09-24T06:14:57.132Z,18.05
2022-09-24T06:17:26.815Z,15.73
2022-09-24T06:19:57.578Z,18.80
2022-09-24T06:22:28.391Z,18.23
2022-09-24T06:24:55.427Z,19.98
2022-09-24T06:27:24.413Z,17.70
2022-09-24T06:29:50.901Z,17.75
2022-09-24T06:32:18.753Z,20.63
2022-09-24T06:34:47.859Z,17.30
2022-09-24T06:37:14.493Z,16.23
2022-09-24T06:39:41.013Z,18.75
2022-09-24T06:42:12.543Z,18.60
2022-09-24T06:44:42.400Z,16.85
2022-09-24T06:47:09.156Z,15.27
2022-09-24T06:49:38.140Z,15.85
2022-09-24T06:52:04.960Z,17.15
2022-09-24T06:54:33.786Z,17.52
2022-09-24T06:57:00.297Z,16.10
2022-09-24T06:59:26.815Z,15.75
2022-09-24T07:01:53.349Z,16.65
2022-09-24T07:04:20.142Z,15.82
2022-09-24T07:07:05.169Z,16.73
2022-09-24T07:09:31.817Z,15.52
2022-09-24T07:12:01.479Z,17.83
2022-09-24T07:14:27.993Z,15.50
2022-09-24T07:16:54.684Z,15.52
2022-09-24T07:19:25.814Z,16.55
2022-09-24T07:21:52.284Z,17.15
2022-09-24T07:24:18.875Z,19.00
2022-09-24T07:26:47.622Z,16.85
2022-09-24T07:29:14.153Z,16.65
2022-09-24T07:31:40.836Z,16.00
2022-09-24T07:34:09.030Z,17.92
2022-09-24T07:36:35.730Z,19.45
2022-09-24T07:39:05.244Z,17.23
2022-09-24T07:41:31.870Z,17.58
2022-09-24T07:43:58.657Z,19.20
2022-09-24T07:46:25.740Z,14.95
2022-09-24T07:48:56.450Z,16.13
2022-09-24T07:51:24.209Z,16.45
2022-09-24T07:53:50.713Z,17.45
2022-09-24T07:56:17.692Z,17.15
2022-09-24T07:58:44.232Z,13.45
2022-09-24T08:01:11.145Z,17.55
2022-09-24T08:03:37.768Z,14.73
2022-09-24T08:06:04.991Z,15.95
2022-09-24T08:08:31.556Z,16.90
2022-09-24T08:10:58.188Z,17.50
2022-09-24T08:13:27.943Z,16.00
2022-09-24T08:16:01.693Z,17.25
2022-09-24T08:18:31.706Z,18.45
2022-09-24T08:21:11.962Z,16.27
2022-09-24T08:23:42.654Z,15.85
2022-09-24T08:26:10.623Z,16.30
2022-09-24T08:28:42.915Z,15.98
2022-09-24T08:31:12.917Z,17.08
2022-09-24T08:33:40.379Z,15.93
2022-09-24T08:36:10.769Z,16.58
2022-09-24T08:38:37.279Z,17.35
2022-09-24T08:41:15.335Z,19.35
2022-09-24T08:44:03.047Z,15.75
2022-09-24T08:46:51.233Z,19.58
2022-09-24T08:49:25.162Z,18.00
2022-09-24T08:52:09.960Z,20.25
2022-09-24T08:54:38.406Z,17.40
2022-09-24T08:57:15.216Z,18.10
2022-09-24T08:59:46.213Z,15.95
2022-09-24T09:02:15.688Z,17.38
2022-09-24T09:05:19.874Z,17.88
2022-09-24T09:08:09.682Z,15.02
2022-09-24T09:10:52.549Z,18.00
2022-09-24T09:13:26.255Z,15.32
2022-09-24T09:16:04.620Z,18.27
2022-09-24T09:18:37.890Z,17.05
2022-09-24T09:21:15.576Z,14.77
2022-09-24T09:23:48.801Z,16.48
2022-09-24T09:26:20.177Z,18.52
2022-09-24T09:28:48.434Z,16.70
2022-09-24T09:31:30.042Z,14.77
2022-09-24T09:34:11.113Z,14.75
2022-09-24T09:37:04.524Z,15.75
2022-09-24T09:39:39.241Z,15.43
2022-09-24T09:42:45.476Z,19.70
2022-09-24T09:45:37.192Z,17.45
2022-09-24T09:48:04.292Z,15.10
2022-09-24T09:50:51.215Z,15.55
2022-09-24T09:53:31.222Z,14.63
2022-09-24T09:56:04.512Z,62.80
2022-09-24T09:58:33.651Z,28.55
2022-09-24T10:01:09.858Z,20.70
2022-09-24T10:03:46.287Z,20.10
2022-09-24T10:06:31.312Z,18.10
2022-09-24T10:09:16.534Z,17.48
2022-09-24T10:11:43.139Z,17.15
2022-09-24T10:14:12.993Z,13.90
2022-09-24T10:16:45.709Z,15.32
2022-09-24T10:19:25.995Z,17.85
2022-09-24T10:21:54.874Z,17.35
2022-09-24T10:24:27.280Z,17.30
2022-09-24T10:26:56.577Z,17.00
2022-09-24T10:29:49.455Z,16.88
2022-09-24T10:32:22.383Z,16.75
2022-09-24T10:35:02.938Z,16.85
2022-09-24T10:37:31.082Z,19.30
2022-09-24T10:40:16.609Z,16.63
2022-09-24T10:42:46.701Z,15.45
2022-09-24T10:45:15.451Z,14.77
2022-09-24T10:47:59.425Z,16.67
2022-09-24T10:50:32.715Z,16.25
2022-09-24T10:53:14.832Z,17.55
2022-09-24T10:55:56.915Z,16.42
2022-09-24T10:58:29.617Z,15.32
2022-09-24T11:01:10.442Z,16.60
2022-09-24T11:04:08.150Z,14.98
2022-09-24T11:07:02.613Z,17.08
2022-09-24T11:09:45.513Z,18.08
2022-09-24T11:12:25.819Z,15.88
2022-09-24T11:15:11.914Z,16.80
2022-09-24T11:18:09.882Z,19.65
2022-09-24T11:20:50.797Z,15.50
2022-09-24T11:23:42.589Z,15.75
2022-09-24T11:26:48.972Z,19.05
2022-09-24T11:29:44.791Z,15.65
2022-09-24T11:32:17.376Z,15.70
2022-09-24T11:35:07.102Z,16.52
2022-09-24T11:37:52.971Z,17.48
2022-09-24T11:40:39.845Z,14.95
2022-09-24T11:43:12.453Z,18.85
2022-09-24T11:46:10.179Z,16.77
2022-09-24T11:49:05.032Z,16.50
2022-09-24T11:51:40.449Z,14.77
2022-09-24T11:54:21.302Z,14.68
2022-09-24T11:57:02.176Z,15.75
2022-09-24T11:59:47.487Z,16.45
2022-09-24T12:02:25.152Z,18.30
2022-09-24T12:05:16.402Z,16.65
2022-09-24T12:07:49.488Z,15.82
2022-09-24T12:10:46.443Z,14.48
2022-09-24T12:13:28.324Z,14.52
2022-09-24T12:15:56.610Z,16.83
2022-09-24T12:18:38.599Z,17.55
2022-09-24T12:21:12.958Z,16.77
2022-09-24T12:23:51.345Z,16.13
2022-09-24T12:26:20.899Z,17.85
2022-09-24T12:29:17.126Z,14.95
2022-09-24T12:32:26.715Z,17.60
2022-09-24T12:35:11.642Z,25.80
2022-09-24T12:37:44.481Z,17.05
2022-09-24T12:40:33.042Z,16.13
2022-09-24T12:43:05.285Z,15.50
2022-09-24T12:45:35.424Z,16.95
2022-09-24T12:48:02.690Z,15.48
2022-09-24T12:50:33.778Z,15.48
2022-09-24T12:53:01.543Z,18.23
2022-09-24T12:55:31.685Z,18.40
2022-09-24T12:58:09.685Z,19.02
2022-09-24T13:00:47.234Z,17.77
2022-09-24T13:03:42.048Z,16.63
2022-09-24T13:06:46.613Z,15.35
2022-09-24T13:09:34.621Z,18.25
2022-09-24T13:12:22.662Z,17.83
2022-09-24T13:15:04.847Z,14.93
2022-09-24T13:17:38.241Z,15.15
2022-09-24T13:20:25.913Z,15.90
2022-09-24T13:22:58.278Z,15.48
2022-09-24T13:25:27.720Z,17.55
2022-09-24T13:28:03.175Z,16.88
2022-09-24T13:30:30.184Z,22.45
2022-09-24T13:33:09.994Z,19.33
2022-09-24T13:35:58.521Z,12.40
2022-09-24T13:38:30.795Z,11.68
2022-09-24T13:41:30.028Z,12.25
2022-09-24T13:44:03.717Z,8.68
2022-09-24T13:46:31.757Z,12.25
2022-09-24T13:49:06.205Z,11.38
2022-09-24T13:51:38.135Z,14.13
2022-09-24T13:54:28.759Z,10.77
2022-09-24T13:57:11.761Z,10.43
2022-09-24T13:59:38.370Z,10.70
2022-09-24T14:02:23.916Z,13.02
2022-09-24T14:04:55.761Z,10.80
2022-09-24T14:07:28.561Z,12.57
2022-09-24T14:10:13.257Z,14.38
2022-09-24T14:12:40.281Z,15.32
2022-09-24T14:15:27.293Z,10.32
2022-09-24T14:18:00.699Z,13.32
2022-09-24T14:20:36.060Z,12.55
2022-09-24T14:23:05.033Z,11.10
2022-09-24T14:25:35.426Z,12.90
2022-09-24T14:28:04.661Z,11.57
2022-09-24T14:30:33.601Z,13.88
2022-09-24T14:33:14.529Z,12.25
2022-09-24T14:35:47.089Z,11.20
2022-09-24T14:38:19.725Z,14.60
2022-09-24T14:41:01.313Z,11.00
2022-09-24T14:43:46.656Z,11.93
2022-09-24T14:46:19.676Z,13.38
2022-09-24T14:48:46.287Z,11.93
2022-09-24T14:51:27.867Z,14.30
2022-09-24T14:54:04.334Z,12.95
2022-09-24T14:56:33.376Z,15.05
2022-09-24T14:59:00.802Z,16.20
2022-09-24T15:01:32.584Z,15.88
2022-09-24T15:04:04.153Z,13.60
2022-09-24T15:06:38.257Z,12.45
2022-09-24T15:09:06.361Z,13.13
2022-09-24T15:11:43.645Z,10.25
2022-09-24T15:14:16.606Z,10.55
2022-09-24T15:16:44.629Z,10.80
2022-09-24T15:19:17.409Z,9.73
2022-09-24T15:21:47.813Z,9.30
2022-09-24T15:24:15.503Z,10.00
2022-09-24T15:26:47.081Z,9.85
2022-09-24T15:29:24.909Z,8.40
2022-09-24T15:31:53.522Z,9.02
2022-09-24T15:34:23.624Z,9.52
2022-09-24T15:37:00.217Z,9.52
2022-09-24T15:39:28.178Z,5.65
2022-09-24T15:41:54.753Z,8.80
2022-09-24T15:44:31.253Z,8.48
2022-09-24T15:47:00.359Z,9.27
2022-09-24T15:49:26.963Z,8.57
2022-09-24T15:52:02.056Z,9.70
2022-09-24T15:54:29.079Z,8.60
2022-09-24T15:56:58.807Z,6.93
2022-09-24T15:59:28.140Z,7.45
2022-09-24T16:01:59.561Z,8.57
2022-09-24T16:04:26.195Z,8.50
2022-09-24T16:06:52.831Z,5.85
2022-09-24T16:09:19.355Z,8.25
2022-09-24T16:11:47.046Z,9.57
2022-09-24T16:14:13.569Z,6.90
2022-09-24T16:16:42.382Z,8.80
2022-09-24T16:19:09.737Z,6.85
2022-09-24T16:21:36.805Z,7.45
2022-09-24T16:24:03.447Z,8.75
2022-09-24T16:26:30.958Z,7.55
2022-09-24T16:28:57.692Z,8.73
2022-09-24T16:31:24.322Z,8.85
2022-09-24T16:33:53.161Z,11.65
2022-09-24T16:36:20.729Z,12.02
2022-09-24T16:38:50.282Z,8.98
2022-09-24T16:41:17.067Z,8.88
2022-09-24T16:43:46.064Z,11.07
2022-09-24T16:46:20.850Z,12.93
2022-09-24T16:48:49.554Z,6.63
2022-09-24T16:51:17.318Z,6.95
2022-09-24T16:53:48.935Z,7.15
2022-09-24T16:56:20.100Z,7.15
2022-09-24T16:58:47.235Z,7.03
2022-09-24T17:01:18.634Z,5.90
2022-09-24T17:03:51.006Z,7.13
2022-09-24T17:06:22.662Z,10.02
2022-09-24T17:09:08.722Z,6.88
2022-09-24T17:11:36.224Z,9.48
2022-09-24T17:14:03.199Z,9.52
2022-09-24T17:16:30.396Z,12.75
2022-09-24T17:18:57.025Z,12.65
2022-09-24T17:21:26.179Z,9.57
2022-09-24T17:23:55.055Z,12.93
2022-09-24T17:26:25.125Z,13.35
2022-09-24T17:28:53.554Z,8.10
2022-09-24T17:31:23.879Z,8.57
2022-09-24T17:33:57.679Z,8.88
2022-09-24T17:36:25.777Z,11.60
2022-09-24T17:38:52.309Z,14.35
2022-09-24T17:41:19.344Z,13.32
2022-09-24T17:43:48.335Z,11.65
2022-09-24T17:46:18.372Z,8.32
2022-09-24T17:48:47.002Z,5.82
2022-09-24T17:51:16.741Z,8.63
2022-09-24T17:53:43.241Z,8.25
2022-09-24T17:56:12.648Z,14.70
2022-09-24T17:58:44.021Z,10.07
2022-09-24T18:01:15.034Z,11.13
2022-09-24T18:03:41.734Z,11.73
2022-09-24T18:06:11.072Z,10.60
2022-09-24T18:08:39.144Z,12.00
2022-09-24T18:11:13.461Z,11.05
2022-09-24T18:13:40.377Z,14.68
2022-09-24T18:16:15.423Z,8.35
2022-09-24T18:18:43.619Z,9.13
2022-09-24T18:21:12.699Z,9.10
2022-09-24T18:23:42.242Z,9.02
2022-09-24T18:26:27.383Z,12.02
2022-09-24T18:28:56.912Z,9.55
2022-09-24T18:31:28.013Z,9.60
2022-09-24T18:33:56.818Z,9.77
2022-09-24T18:36:25.600Z,7.38
2022-09-24T18:38:53.172Z,12.43
2022-09-24T18:41:22.933Z,13.38
2022-09-24T18:43:50.372Z,15.77
2022-09-24T18:46:19.605Z,10.20
2022-09-24T18:48:48.595Z,6.88
2022-09-24T18:51:22.900Z,11.70
2022-09-24T18:54:00.887Z,10.82
2022-09-24T18:56:27.729Z,8.18
2022-09-24T18:58:56.213Z,8.88
2022-09-24T19:01:23.280Z,7.07
2022-09-24T19:03:49.990Z,8.00
2022-09-24T19:06:16.740Z,9.65
2022-09-24T19:08:45.572Z,8.85
2022-09-24T19:11:15.849Z,8.15
2022-09-24T19:13:46.951Z,12.07
2022-09-24T19:16:15.016Z,12.45
2022-09-24T19:18:42.216Z,9.15
2022-09-24T19:21:12.105Z,12.90
2022-09-24T19:23:43.409Z,10.55
2022-09-24T19:26:11.507Z,14.90
2022-09-24T19:28:41.116Z,13.48
2022-09-24T19:31:13.635Z,7.65
2022-09-24T19:33:40.962Z,13.20
2022-09-24T19:36:11.270Z,14.25
2022-09-24T19:38:38.268Z,10.40
2022-09-24T19:41:07.885Z,12.90
2022-09-24T19:43:35.098Z,11.25
2022-09-24T19:46:04.884Z,11.18
2022-09-24T19:48:35.382Z,11.65
2022-09-24T19:51:05.065Z,8.30
2022-09-24T19:53:32.131Z,11.13
2022-09-24T19:55:59.422Z,9.18
2022-09-24T19:58:28.264Z,15.32
2022-09-24T20:00:54.956Z,16.50
2022-09-24T20:03:26.382Z,24.05
2022-09-24T20:05:55.222Z,14.63
2022-09-24T20:08:23.363Z,11.27
2022-09-24T20:10:50.343Z,9.77
2022-09-24T20:13:20.725Z,10.70
2022-09-24T20:15:47.331Z,12.40
2022-09-24T20:18:13.855Z,13.57
2022-09-24T20:20:40.654Z,15.63
2022-09-24T20:23:10.955Z,12.15
2022-09-24T20:25:56.278Z,14.27
2022-09-24T20:28:22.771Z,13.48
2022-09-24T20:30:49.366Z,10.07
2022-09-24T20:33:18.634Z,12.23
2022-09-24T20:35:45.543Z,10.48
2022-09-24T20:38:14.290Z,12.98
2022-09-24T20:40:43.307Z,11.93
2022-09-24T20:43:09.849Z,9.70
2022-09-24T20:45:40.828Z,11.65
2022-09-24T20:48:09.827Z,17.38
2022-09-24T20:50:36.322Z,11.80
2022-09-24T20:53:02.803Z,16.23
2022-09-24T20:55:30.354Z,9.30
2022-09-24T20:57:59.235Z,14.02
2022-09-24T21:00:32.273Z,7.28
2022-09-24T21:02:59.157Z,7.30
2022-09-24T21:05:26.252Z,9.02
2022-09-24T21:07:52.730Z,9.65
2022-09-24T21:10:19.350Z,10.02
2022-09-24T21:12:51.016Z,9.65
2022-09-24T21:15:17.734Z,12.05
2022-09-24T21:18:05.026Z,9.95
2022-09-24T21:20:33.290Z,10.00
2022-09-24T21:23:00.211Z,10.88
2022-09-24T21:25:52.874Z,8.10
2022-09-24T21:28:16.344Z,6.57
2022-09-24T21:30:43.267Z,10.25
2022-09-24T21:33:12.185Z,11.13
2022-09-24T21:35:40.932Z,8.20
2022-09-24T21:38:09.896Z,8.23
2022-09-24T21:40:37.188Z,10.02
2022-09-24T21:43:06.693Z,9.15
2022-09-24T21:45:35.506Z,11.55
2022-09-24T21:48:02.256Z,11.57
2022-09-24T21:50:29.318Z,12.07
2022-09-24T21:52:55.776Z,9.32
2022-09-24T21:55:22.265Z,4.30
2022-09-24T21:57:48.761Z,9.88
2022-09-24T22:00:15.478Z,5.18
2022-09-24T22:02:43.879Z,6.35
2022-09-24T22:05:16.506Z,5.65
2022-09-24T22:07:46.598Z,13.02
2022-09-24T22:10:13.715Z,10.40
2022-09-24T22:12:42.548Z,8.07
2022-09-24T22:15:09.726Z,8.70
2022-09-24T22:17:38.522Z,9.43
2022-09-24T22:20:05.935Z,8.93
2022-09-24T22:22:34.846Z,9.27
2022-09-24T22:25:01.379Z,9.68
2022-09-24T22:27:27.885Z,12.85
2022-09-24T22:29:54.396Z,5.72
2022-09-24T22:32:20.915Z,7.07
2022-09-24T22:35:05.885Z,8.23
2022-09-24T22:37:33.431Z,10.90
2022-09-24T22:40:02.310Z,10.57
2022-09-24T22:42:31.257Z,7.55
2022-09-24T22:44:58.591Z,8.32
2022-09-24T22:47:25.071Z,8.52
2022-09-24T22:49:51.607Z,6.10
2022-09-24T22:52:18.126Z,14.73
2022-09-24T22:54:44.602Z,10.50
2022-09-24T22:57:11.120Z,8.35
2022-09-24T22:59:37.650Z,8.52
2022-09-24T23:02:04.949Z,11.68
2022-09-24T23:04:38.348Z,12.02
2022-09-24T23:07:04.863Z,7.57
2022-09-24T23:09:31.365Z,3.83
2022-09-24T23:11:57.878Z,4.78
2022-09-24T23:14:26.496Z,11.32
2022-09-24T23:16:53.059Z,6.50
2022-09-24T23:19:20.263Z,7.43
2022-09-24T23:21:47.264Z,9.32
2022-09-24T23:24:19.115Z,11.73
2022-09-24T23:26:46.639Z,7.55
2022-09-24T23:29:16.652Z,8.45
2022-09-24T23:31:43.326Z,10.63
2022-09-24T23:34:12.425Z,8.90
2022-09-24T23:36:39.080Z,7.53
2022-09-24T23:39:05.701Z,3.97
2022-09-24T23:41:32.499Z,10.18
2022-09-24T23:43:59.759Z,9.02
2022-09-24T23:46:27.462Z,9.27
2022-09-24T23:48:54.433Z,8.02
2022-09-24T23:51:23.703Z,9.63
2022-09-24T23:53:50.235Z,7.78
2022-09-24T23:56:16.925Z,11.10
2022-09-24T23:58:43.841Z,8.20
